Flight Track Log - Related Links

Times and Time Zones

All times are in EDT time to prevent confusion due to time zone crossing. See the USC110 flight status page for this flight to view local times or setup timezone preferences in your user account.


Time Position Orientation Groundspeed Altitude Reporting Facility
EDT Latitude Longitude Course Direction KTS MPH feet Rate Location/Type
Fri 09:58:31 PM 39.8150 -82.9269 40° Northeast 101 116 900  Level Indianapolis Center
Fri 09:58:56 PM 39.8219 -82.9194 40° Northeast 84 97 1,400 1,253 Climbing Indianapolis Center
Fri 10:00:02 PM 39.8383 -82.8942 50° Northeast 96 110 2,800 1,185 Climbing Indianapolis Center
Fri 10:00:17 PM 39.8403 -82.8903 57° Northeast 84 97 3,000 1,180 Climbing Indianapolis Center
Fri 10:01:03 PM 39.8564 -82.8744 37° Northeast 85 98 4,000 1,082 Climbing Indianapolis Center
Fri 10:01:18 PM 39.8583 -82.8708 55° Northeast 83 96 4,100 1,180 Climbing Indianapolis Center
Fri 10:02:04 PM 39.8781 -82.8608 21° North 85 98 5,200 1,258 Climbing Indianapolis Center
Fri 10:02:20 PM 39.8808 -82.8575 43° Northeast 85 98 5,400 1,200 Climbing Indianapolis Center
Fri 10:03:04 PM 39.8981 -82.8439 31° Northeast 86 99 6,400 1,180 Climbing Indianapolis Center
Fri 10:03:21 PM 39.9022 -82.8419 20° North 88 101 6,600 1,082 Climbing Indianapolis Center
Fri 10:04:05 PM 39.9200 -82.8300 27° Northeast 90 104 7,500 1,180 Climbing Indianapolis Center
Fri 10:04:22 PM 39.9281 -82.8233 32° Northeast 89 102 7,800 1,100 Climbing Indianapolis Center
Fri 10:05:05 PM 39.9461 -82.8142 21° North 95 109 8,600 1,082 Climbing Indianapolis Center
Fri 10:05:23 PM 39.9517 -82.8072 44° Northeast 92 106 8,900 393 Climbing Indianapolis Center
Fri 10:06:06 PM 39.9747 -82.7928 26° Northeast 137 158 9,000 98 Climbing Indianapolis Center
Fri 10:06:24 PM 39.9836 -82.7839 37° Northeast 121 139 9,000  Level Indianapolis Center
Fri 10:07:07 PM 40.0144 -82.7644 26° Northeast 182 209 9,000  Level Indianapolis Center
Fri 10:07:25 PM 40.0275 -82.7542 31° Northeast 167 192 9,000  Level Indianapolis Center
Fri 10:08:07 PM 40.0561 -82.7339 28° Northeast 178 205 9,000  Level Indianapolis Center
Fri 10:08:27 PM 40.0700 -82.7239 29° Northeast 173 199 9,000  Level Indianapolis Center
Fri 10:09:08 PM 40.0978 -82.7058 26° Northeast 170 196 9,000  Level Indianapolis Center
Fri 10:09:28 PM 40.1128 -82.6939 31° Northeast 173 199 9,000  Level Indianapolis Center
Fri 10:10:09 PM 40.1439 -82.6728 27° Northeast 169 194 9,000  Level Indianapolis Center
Fri 10:10:29 PM 40.1542 -82.6650 30° Northeast 170 196 9,000  Level Indianapolis Center
Fri 10:11:03 PM 40.1789 -82.6494 26° Northeast 169 194 9,000  Level Indianapolis Center
Fri 10:11:30 PM 40.1958 -82.6364 30° Northeast 168 193 9,000  Level Indianapolis Center
Fri 10:12:04 PM 40.2228 -82.6186 27° Northeast 169 194 9,000  Level Indianapolis Center
Fri 10:12:31 PM 40.2378 -82.6069 31° Northeast 169 194 9,000  Level Indianapolis Center
Fri 10:13:04 PM 40.2642 -82.5906 25° Northeast 169 194 9,000  Level Indianapolis Center
Fri 10:13:32 PM 40.2794 -82.5758 36° Northeast 170 196 9,000  Level Indianapolis Center
Fri 10:13:59 PM 40.2994 -82.5642 24° Northeast 169 194 9,000  Level Indianapolis Center
Fri 10:14:33 PM 40.3217 -82.5472 30° Northeast 170 196 9,000  Level Indianapolis Center
Fri 10:15:34 PM 40.3631 -82.5175 29° Northeast 167 192 9,000  Level Indianapolis Center
Fri 10:16:35 PM 40.4056 -82.4878 28° Northeast 171 197 9,000  Level Indianapolis Center
Fri 10:17:36 PM 40.4478 -82.4572 29° Northeast 171 197 9,000  Level Indianapolis Center
Fri 10:18:38 PM 40.4892 -82.4272 29° Northeast 170 196 9,000  Level Indianapolis Center
Fri 10:19:39 PM 40.5308 -82.3975 28° Northeast 168 193 9,000  Level Indianapolis Center
Fri 10:20:40 PM 40.5733 -82.3683 28° Northeast 169 194 9,000  Level Indianapolis Center
Fri 10:21:41 PM 40.6150 -82.3375 29° Northeast 170 196 9,000  Level Indianapolis Center
Fri 10:22:42 PM 40.6567 -82.3081 28° Northeast 169 194 9,000  Level Indianapolis Center
Fri 10:23:43 PM 40.6978 -82.2769 30° Northeast 168 193 9,000  Level Indianapolis Center
Fri 10:24:44 PM 40.7400 -82.2478 28° Northeast 169 194 9,000  Level Indianapolis Center
Fri 10:25:45 PM 40.7817 -82.2169 29° Northeast 170 196 9,000  Level Indianapolis Center
Fri 10:26:46 PM 40.8317 -82.1822 28° Northeast 171 197 9,000  Level Indianapolis Center
Fri 10:27:47 PM 40.8742 -82.1511 29° Northeast 173 199 9,000  Level Indianapolis Center
Fri 10:28:16 PM 40.8903 -82.1406 26° Northeast 172 198 9,000  Level Cleveland Center
Fri 10:28:32 PM 40.9008 -82.1325 30° Northeast 168 193 9,000  Level Cleveland Center
Fri 10:29:32 PM 40.9472 -82.1006 27° Northeast 168 193 9,000  Level Cleveland Center
Fri 10:30:11 PM 40.9725 -82.0847 25° Northeast 171 197 9,000  Level Cleveland Center
Fri 10:30:32 PM 40.9872 -82.0686 40° Northeast 162 186 9,000  Level Cleveland Center
Fri 10:31:18 PM 41.0186 -82.0500 24° Northeast 168 193 9,000  Level Cleveland Center
Fri 10:32:00 PM 41.0483 -82.0258 32° Northeast 170 196 9,000  Level Cleveland Center
Fri 10:32:32 PM 41.0692 -82.0097 30° Northeast 162 186 9,000  Level Cleveland Center
Fri 10:32:55 PM 41.0839 -82.0019 22° Northeast 169 194 9,000  Level Cleveland Center
Fri 10:33:32 PM 41.1114 -81.9803 31° Northeast 162 186 9,000  Level Cleveland Center
Fri 10:33:56 PM 41.1261 -81.9697 28° Northeast 171 197 9,000 -300 Level Cleveland Center
Fri 10:34:32 PM 41.1533 -81.9481 31° Northeast 162 186 8,700 -492 Descending Cleveland Center
Fri 10:34:57 PM 41.1703 -81.9375 25° Northeast 179 206 8,500 -565 Descending Cleveland Center
Fri 10:35:57 PM 41.2144 -81.9081 27° Northeast 185 213 7,900 -645 Descending Cleveland Center
Fri 10:36:58 PM 41.2647 -81.8706 29° Northeast 194 223 7,200 -443 Descending Cleveland Center
Fri 10:37:59 PM 41.3069 -81.8353 32° Northeast 187 215 7,000 -82 Descending Cleveland Center
Fri 10:39:24 PM 41.3553 -81.7864 37° Northeast 163 188 7,000 -43 Level Cleveland Center
Fri 10:40:18 PM 41.3831 -81.7344 55° Northeast 177 204 6,900 -330 Descending Cleveland Center
Fri 10:41:13 PM 41.4086 -81.6822 57° Northeast 196 226 6,400 -495 Descending Cleveland Center
Fri 10:42:07 PM 41.4339 -81.6356 54° Northeast 187 215 6,000 -626 Descending Cleveland Center
Fri 10:43:08 PM 41.4678 -81.5836 49° Northeast 197 227 5,200 -879 Descending Cleveland Center
Fri 10:44:03 PM 41.4933 -81.5311 57° Northeast 173 199 4,300 -992 Descending Cleveland Center
Fri 10:45:09 PM 41.5208 -81.4761 56° Northeast 166 191 3,200 -730 Descending Cleveland Center
Fri 10:45:58 PM 41.5503 -81.4544 29° Northeast 163 188 2,900 -110 Descending Cleveland Center
Fri 10:46:58 PM 41.5811 -81.4964 315° West 147 169 3,000  Climbing Cleveland Center
Fri 10:47:53 PM 41.5828 -81.5436 273° West 175 201 2,900 -541 Descending Cleveland Center
Fri 10:49:00 PM 41.5553 -81.5986 236° Southwest 153 176 1,900 -896 Descending Cleveland Center

Login

Don't have an account? Register now (free) for customized features, flight alerts, and more!